首页
METAR-TAF:

METAR-TAF

机场 :

札幌飛行場

札幌, 日本

纬度: 43-07N, 经度: 141-23E, 海拔: 8米

当前天气观测

该预报发布于2小时和47分钟前的23:23 UTC
风速12节,风向南转南东
温度 22°C
湿度 100%
气压 1006 hPa
能见度10公里或以上
少量云层高于800英尺
散云层高于5000英尺
多云层高于8000英尺

METAR: RJCO 212323Z 15012KT 9999 FEW008 SCT050 BKN080 22/22 Q1006 RMK 1ST008 4CU050 7AC080 A2972

时间: 11:10 (02:10 UTC)


TAF: 丢失

超过4000个机场的气象观测和天气预报(METAR&TAF报告)。

可查询的气象台以黄色和红色小点在地图上表示。

将鼠标移到小点上方,可查看气象台名称。

然后点击查看天气观测和预报。

如需切换地图:点击带黑十字的绿色按钮放大地图;点击带横线的绿色按钮缩小地图;或者点击绿色箭头查看邻近地区的地图。


METAR-TAF: